createdAt,value
2018-07-17T00:00:41.629Z,22.40
2018-07-17T00:04:43.828Z,22.60
2018-07-17T00:08:46.164Z,22.30
2018-07-17T00:12:48.439Z,22.40
2018-07-17T00:16:50.526Z,22.30
2018-07-17T00:20:52.769Z,22.30
2018-07-17T00:24:54.923Z,22.20
2018-07-17T00:28:57.427Z,22.20
2018-07-17T00:32:59.675Z,21.60
2018-07-17T00:37:01.963Z,21.80
2018-07-17T00:41:04.328Z,21.90
2018-07-17T00:45:06.487Z,21.70
2018-07-17T00:49:08.662Z,21.40
2018-07-17T00:53:11.145Z,21.10
2018-07-17T00:57:13.710Z,21.20
2018-07-17T01:01:21.552Z,21.70
2018-07-17T01:05:29.299Z,21.70
2018-07-17T01:09:37.267Z,21.60
2018-07-17T01:13:57.963Z,21.40
2018-07-17T01:18:00.154Z,21.30
2018-07-17T01:22:02.319Z,21.30
2018-07-17T01:26:05.217Z,21.30
2018-07-17T01:30:07.565Z,21.20
2018-07-17T01:34:09.681Z,21.30
2018-07-17T01:38:11.831Z,20.90
2018-07-17T01:42:13.979Z,21.20
2018-07-17T01:46:16.343Z,20.40
2018-07-17T01:50:18.495Z,20.80
2018-07-17T01:54:20.655Z,21.00
2018-07-17T01:58:22.803Z,20.90
2018-07-17T02:02:24.922Z,20.80
2018-07-17T02:06:27.478Z,20.80
2018-07-17T02:10:29.901Z,20.90
2018-07-17T02:14:32.106Z,20.40
2018-07-17T02:18:34.459Z,20.70
2018-07-17T02:22:36.659Z,20.70
2018-07-17T02:26:38.802Z,20.60
2018-07-17T02:30:40.950Z,20.50
2018-07-17T02:34:43.153Z,20.50
2018-07-17T02:38:45.394Z,20.60
2018-07-17T02:42:47.808Z,20.50
2018-07-17T02:46:50.011Z,20.40
2018-07-17T02:50:52.195Z,20.40
2018-07-17T02:54:54.486Z,20.30
2018-07-17T02:58:57.159Z,20.20
2018-07-17T03:02:59.311Z,20.00
2018-07-17T03:07:01.477Z,19.50
2018-07-17T03:11:03.679Z,19.90
2018-07-17T03:15:05.824Z,20.30
2018-07-17T03:19:08.615Z,20.30
2018-07-17T03:23:10.816Z,20.10
2018-07-17T03:27:13.096Z,19.90
2018-07-17T03:31:15.395Z,20.00
2018-07-17T03:35:17.511Z,20.00
2018-07-17T03:39:19.674Z,20.00
2018-07-17T03:43:21.948Z,20.00
2018-07-17T03:47:24.115Z,19.90
2018-07-17T03:51:26.285Z,19.60
2018-07-17T03:55:28.442Z,20.00
2018-07-17T03:59:30.684Z,20.10
2018-07-17T04:03:32.823Z,20.10
2018-07-17T04:07:35.771Z,19.90
2018-07-17T04:11:38.072Z,20.10
2018-07-17T04:15:40.449Z,20.20
2018-07-17T04:19:42.636Z,20.30
2018-07-17T04:23:45.012Z,20.20
2018-07-17T04:27:47.166Z,19.90
2018-07-17T04:31:49.429Z,20.00
2018-07-17T04:35:51.581Z,20.50
2018-07-17T04:39:53.731Z,20.70
2018-07-17T04:43:55.904Z,21.00
2018-07-17T04:47:58.043Z,21.20
2018-07-17T04:52:00.310Z,21.50
2018-07-17T04:56:02.503Z,21.80
2018-07-17T05:00:04.961Z,22.10
2018-07-17T05:04:07.151Z,22.30
2018-07-17T05:08:09.300Z,22.40
2018-07-17T05:12:11.515Z,22.50
2018-07-17T05:16:13.719Z,23.00
2018-07-17T05:20:16.029Z,22.80
2018-07-17T05:24:18.142Z,23.20
2018-07-17T05:28:20.326Z,23.40
2018-07-17T05:32:22.590Z,23.80
2018-07-17T05:36:25.035Z,24.30
2018-07-17T05:40:27.248Z,24.40
2018-07-17T05:44:29.446Z,24.60
2018-07-17T05:48:31.814Z,24.90
2018-07-17T05:52:34.163Z,25.50
2018-07-17T05:56:36.415Z,25.90
2018-07-17T06:00:38.568Z,26.80
2018-07-17T06:04:40.730Z,28.70
2018-07-17T06:08:42.952Z,30.60
2018-07-17T06:12:45.170Z,32.30
2018-07-17T06:16:47.338Z,34.60
2018-07-17T06:20:51.202Z,35.90
2018-07-17T06:24:53.368Z,36.40
2018-07-17T06:28:56.051Z,36.70
2018-07-17T06:32:58.273Z,36.60
2018-07-17T06:37:00.405Z,36.30
2018-07-17T06:41:02.675Z,35.40
2018-07-17T06:45:04.929Z,34.70
2018-07-17T06:49:07.091Z,34.10
2018-07-17T06:53:09.534Z,33.20
2018-07-17T06:57:11.747Z,32.80
2018-07-17T07:01:14.072Z,32.90
2018-07-17T07:05:16.408Z,32.50
2018-07-17T07:09:18.514Z,32.70
2018-07-17T07:13:20.664Z,31.70
2018-07-17T07:17:22.911Z,32.10
2018-07-17T07:21:25.064Z,32.00
2018-07-17T07:25:27.191Z,31.80
2018-07-17T07:29:29.340Z,31.80
2018-07-17T07:33:31.495Z,31.40
2018-07-17T07:37:33.690Z,31.70
2018-07-17T07:41:35.885Z,31.70
2018-07-17T07:45:38.022Z,32.30
2018-07-17T07:49:40.175Z,33.10
2018-07-17T07:53:42.300Z,32.50
2018-07-17T07:57:45.653Z,33.70
2018-07-17T08:01:47.853Z,30.90
2018-07-17T08:05:50.110Z,31.10
2018-07-17T08:09:52.256Z,29.70
2018-07-17T08:13:54.430Z,29.90
2018-07-17T08:17:56.648Z,29.80
2018-07-17T08:21:58.848Z,30.10
2018-07-17T08:26:01.095Z,30.30
2018-07-17T08:30:03.451Z,31.20
2018-07-17T08:34:05.707Z,29.50
2018-07-17T08:38:07.895Z,28.20
2018-07-17T08:42:10.138Z,30.10
2018-07-17T08:46:12.414Z,29.40
2018-07-17T08:50:14.567Z,31.10
2018-07-17T08:54:16.763Z,30.60
2018-07-17T08:58:18.928Z,32.00
2018-07-17T09:02:21.079Z,31.10
2018-07-17T09:06:23.490Z,30.50
2018-07-17T09:10:25.629Z,30.20
2018-07-17T09:14:27.772Z,30.20
2018-07-17T09:18:29.956Z,28.80
2018-07-17T09:22:33.728Z,30.80
2018-07-17T09:26:36.033Z,31.40
2018-07-17T09:30:43.966Z,30.70
2018-07-17T09:34:46.155Z,30.80
2018-07-17T09:38:48.295Z,30.50
2018-07-17T09:42:50.446Z,30.00
2018-07-17T09:46:53.597Z,30.20
2018-07-17T09:50:55.749Z,31.40
2018-07-17T09:54:57.860Z,30.90
2018-07-17T09:59:00.135Z,31.30
2018-07-17T10:03:02.918Z,30.30
2018-07-17T10:07:05.202Z,31.10
2018-07-17T10:11:07.499Z,31.40
2018-07-17T10:15:09.665Z,32.60
2018-07-17T10:19:11.833Z,32.60
2018-07-17T10:23:14.243Z,31.40
2018-07-17T10:27:16.364Z,32.30
2018-07-17T10:31:18.555Z,33.30
2018-07-17T10:35:20.851Z,32.70
2018-07-17T10:39:23.027Z,33.90
2018-07-17T10:43:25.235Z,35.10
2018-07-17T10:47:27.489Z,34.60
2018-07-17T10:51:29.617Z,34.30
2018-07-17T10:55:31.812Z,33.60
2018-07-17T10:59:33.959Z,33.10
2018-07-17T11:03:36.133Z,33.60
2018-07-17T11:07:38.776Z,34.60
2018-07-17T11:11:41.027Z,34.30
2018-07-17T11:15:43.418Z,35.00
2018-07-17T11:19:45.683Z,35.70
2018-07-17T11:23:47.829Z,35.90
2018-07-17T11:27:50.012Z,34.30
2018-07-17T11:31:52.304Z,34.50
2018-07-17T11:35:55.735Z,33.80
2018-07-17T11:39:58.194Z,34.30
2018-07-17T11:44:01.562Z,34.00
2018-07-17T11:48:06.287Z,32.60
2018-07-17T11:52:08.512Z,32.80
2018-07-17T11:56:10.684Z,34.40
2018-07-17T12:00:12.962Z,34.50
2018-07-17T12:04:15.108Z,33.20
2018-07-17T12:08:17.264Z,33.60
2018-07-17T12:12:19.411Z,34.00
2018-07-17T12:16:21.579Z,33.50
2018-07-17T12:20:23.889Z,33.80
2018-07-17T12:24:25.972Z,33.90
2018-07-17T12:28:28.189Z,32.20
2018-07-17T12:32:30.508Z,31.80
2018-07-17T12:36:32.711Z,31.80
2018-07-17T12:40:34.938Z,31.10
2018-07-17T12:44:37.083Z,31.60
2018-07-17T12:48:39.303Z,34.00
2018-07-17T12:52:41.507Z,36.30
2018-07-17T12:56:43.655Z,35.90
2018-07-17T13:00:45.796Z,35.90
2018-07-17T13:04:48.003Z,36.30
2018-07-17T13:08:50.183Z,37.60
2018-07-17T13:12:52.361Z,39.10
2018-07-17T13:16:54.520Z,38.50
2018-07-17T13:20:56.700Z,36.50
2018-07-17T13:24:58.890Z,37.10
2018-07-17T13:29:01.071Z,37.30
2018-07-17T13:33:03.310Z,37.90
2018-07-17T13:37:05.468Z,38.30
2018-07-17T13:41:07.691Z,38.20
2018-07-17T13:45:09.958Z,37.70
2018-07-17T13:49:12.249Z,38.70
2018-07-17T13:53:14.435Z,38.90
2018-07-17T13:57:16.649Z,37.80
2018-07-17T14:01:18.856Z,38.60
2018-07-17T14:05:21.087Z,38.10
2018-07-17T14:09:23.302Z,34.70
2018-07-17T14:13:25.505Z,34.30
2018-07-17T14:17:27.842Z,33.80
2018-07-17T14:21:30.379Z,36.10
2018-07-17T14:25:32.610Z,37.10
2018-07-17T14:29:34.868Z,36.80
2018-07-17T14:33:37.533Z,35.60
2018-07-17T14:37:39.763Z,34.60
2018-07-17T14:41:42.414Z,33.90
2018-07-17T14:45:44.658Z,33.90
2018-07-17T14:49:47.027Z,33.10
2018-07-17T14:53:49.207Z,32.80
2018-07-17T14:57:51.460Z,32.20
2018-07-17T15:01:53.660Z,32.70
2018-07-17T15:05:55.846Z,32.20
2018-07-17T15:09:58.071Z,32.60
2018-07-17T15:14:00.243Z,33.30
2018-07-17T15:18:02.416Z,33.80
2018-07-17T15:22:04.973Z,33.70
2018-07-17T15:26:07.122Z,33.10
2018-07-17T15:30:09.310Z,33.30
2018-07-17T15:34:11.505Z,32.80
2018-07-17T15:38:13.658Z,32.00
2018-07-17T15:42:15.799Z,30.90
2018-07-17T15:46:17.957Z,29.80
2018-07-17T15:50:20.145Z,29.40
2018-07-17T15:54:22.335Z,29.70
2018-07-17T15:58:24.511Z,29.50
2018-07-17T16:02:26.703Z,29.30
2018-07-17T16:06:28.890Z,30.10
2018-07-17T16:10:31.128Z,29.90
2018-07-17T16:14:33.323Z,30.20
2018-07-17T16:18:35.546Z,29.60
2018-07-17T16:22:37.762Z,30.50
2018-07-17T16:26:40.105Z,29.90
2018-07-17T16:30:42.127Z,30.00
2018-07-17T16:34:44.340Z,30.10
2018-07-17T16:38:46.511Z,30.80
2018-07-17T16:42:48.643Z,30.80
2018-07-17T16:46:50.850Z,30.10
2018-07-17T16:50:53.007Z,30.70
2018-07-17T16:54:56.081Z,31.30
2018-07-17T16:58:58.239Z,31.50
2018-07-17T17:03:00.399Z,31.10
2018-07-17T17:07:02.610Z,30.80
2018-07-17T17:11:04.825Z,30.90
2018-07-17T17:15:07.016Z,28.50
2018-07-17T17:19:09.250Z,28.80
2018-07-17T17:23:11.431Z,29.70
2018-07-17T17:27:13.617Z,30.40
2018-07-17T17:31:16.032Z,30.10
2018-07-17T17:35:18.203Z,30.20
2018-07-17T17:39:20.373Z,29.90
2018-07-17T17:43:22.523Z,29.90
2018-07-17T17:47:24.680Z,29.50
2018-07-17T17:51:26.868Z,29.30
2018-07-17T17:55:29.012Z,29.40
2018-07-17T17:59:31.179Z,29.20
2018-07-17T18:03:33.406Z,29.20
2018-07-17T18:07:35.685Z,29.50
2018-07-17T18:11:37.910Z,29.20
2018-07-17T18:15:40.065Z,29.70
2018-07-17T18:19:42.337Z,29.50
2018-07-17T18:23:44.669Z,29.80
2018-07-17T18:27:46.931Z,30.20
2018-07-17T18:31:49.137Z,30.40
2018-07-17T18:35:51.340Z,29.70
2018-07-17T18:39:53.542Z,30.10
2018-07-17T18:43:55.716Z,29.70
2018-07-17T18:47:57.920Z,29.60
2018-07-17T18:52:00.078Z,29.30
2018-07-17T18:56:02.248Z,29.40
2018-07-17T19:00:05.175Z,29.20
2018-07-17T19:04:07.352Z,29.20
2018-07-17T19:08:09.572Z,29.00
2018-07-17T19:12:11.807Z,28.90
2018-07-17T19:16:13.924Z,27.20
2018-07-17T19:20:16.131Z,26.30
2018-07-17T19:24:18.371Z,26.10
2018-07-17T19:28:20.562Z,25.70
2018-07-17T19:32:22.765Z,26.20
2018-07-17T19:36:24.935Z,25.70
2018-07-17T19:40:27.101Z,26.00
2018-07-17T19:44:29.265Z,26.70
2018-07-17T19:48:31.468Z,26.60
2018-07-17T19:52:33.692Z,26.50
2018-07-17T19:56:35.869Z,26.40
2018-07-17T20:00:38.083Z,26.00
2018-07-17T20:04:40.277Z,25.80
2018-07-17T20:08:42.470Z,25.40
2018-07-17T20:12:44.627Z,25.60
2018-07-17T20:16:46.845Z,25.60
2018-07-17T20:20:48.983Z,25.50
2018-07-17T20:24:51.139Z,25.80
2018-07-17T20:28:53.405Z,25.70
2018-07-17T20:32:55.559Z,25.60
2018-07-17T20:36:57.794Z,25.60
2018-07-17T20:40:59.968Z,25.90
2018-07-17T20:45:02.132Z,25.40
2018-07-17T20:49:04.296Z,26.40
2018-07-17T20:53:06.615Z,26.50
2018-07-17T20:57:08.711Z,25.50
2018-07-17T21:01:10.897Z,25.40
2018-07-17T21:05:13.154Z,25.20
2018-07-17T21:09:15.370Z,25.00
2018-07-17T21:13:17.660Z,24.60
2018-07-17T21:17:19.739Z,25.30
2018-07-17T21:21:21.901Z,24.80
2018-07-17T21:25:24.094Z,24.70
2018-07-17T21:29:26.264Z,24.80
2018-07-17T21:33:28.431Z,24.60
2018-07-17T21:37:30.583Z,24.40
2018-07-17T21:41:32.800Z,24.70
2018-07-17T21:45:35.002Z,24.30
2018-07-17T21:49:37.436Z,24.20
2018-07-17T21:53:39.660Z,24.30
2018-07-17T21:57:41.892Z,24.20
2018-07-17T22:01:44.099Z,24.30
2018-07-17T22:05:46.303Z,24.70
2018-07-17T22:09:48.676Z,24.60
2018-07-17T22:13:50.988Z,23.90
2018-07-17T22:17:53.187Z,23.70
2018-07-17T22:21:55.352Z,23.70
2018-07-17T22:25:57.577Z,23.60
2018-07-17T22:29:59.870Z,23.50
2018-07-17T22:34:02.025Z,23.60
2018-07-17T22:38:04.214Z,24.00
2018-07-17T22:42:08.441Z,23.50
2018-07-17T22:46:10.685Z,23.40
2018-07-17T22:50:12.995Z,23.90
2018-07-17T22:54:15.418Z,23.60
2018-07-17T22:58:17.711Z,24.10
2018-07-17T23:02:19.915Z,23.80
2018-07-17T23:06:22.354Z,24.10
2018-07-17T23:10:24.576Z,23.70
2018-07-17T23:14:26.752Z,23.50
2018-07-17T23:18:28.967Z,23.80
2018-07-17T23:22:56.776Z,23.30
2018-07-17T23:26:58.984Z,23.30
2018-07-17T23:31:01.201Z,24.20
2018-07-17T23:35:03.444Z,24.20
2018-07-17T23:39:07.209Z,23.10
2018-07-17T23:43:09.434Z,22.90
2018-07-17T23:47:11.615Z,23.10
2018-07-17T23:51:13.823Z,22.50
2018-07-17T23:55:15.992Z,22.70
2018-07-17T23:59:18.189Z,22.00
